This is the latest recevied weather packets stored in our database for station/object KI7JYE. If no packets are shown the sender has not sent any weather packets the latest 10 day(s).
| Time | Temp. | Humidity | Pressure | Rain* | Wind** | Luminosity | Snow |
|---|---|---|---|---|---|---|---|
| 1777663744 | 21.11° C | 59% | 1015.4 hPa | 0 mm | - | 622 W/m² | - |
| 1777663441 | 21.11° C | 58% | 1015.6 hPa | 0 mm | - | 660 W/m² | - |
| 1777663138 | 20.56° C | 59% | 1015.5 hPa | 0 mm | - | 606 W/m² | - |
| 1777662835 | 20° C | 60% | 1015.4 hPa | 0 mm | - | 685 W/m² | - |
| 1777662532 | 19.44° C | 63% | 1015.5 hPa | 0 mm | - | 718 W/m² | - |
| 1777662228 | 17.78° C | 65% | 1015.5 hPa | 0 mm | - | 727 W/m² | - |
| 1777661923 | 17.78° C | 66% | 1015.7 hPa | 0 mm | - | 743 W/m² | - |
| 1777661619 | 17.78° C | 66% | 1015.4 hPa | 0 mm | - | 815 W/m² | - |
| 1777661315 | 20° C | 63% | 1015.6 hPa | 0 mm | - | 668 W/m² | - |
| 1777661011 | 18.89° C | 63% | 1015.6 hPa | 0 mm | - | 783 W/m² | - |
| 1777660707 | 18.89° C | 63% | 1015.6 hPa | 0 mm | - | 798 W/m² | - |
| 1777660405 | 19.44° C | 63% | 1015.9 hPa | 0 mm | - | 726 W/m² | - |
| 1777660101 | 18.33° C | 63% | 1015.9 hPa | 0 mm | - | 734 W/m² | - |
| 1777659798 | 17.22° C | 68% | 1015.9 hPa | 0 mm | - | 675 W/m² | - |
| 1777659495 | 17.78° C | 66% | 1015.9 hPa | 0 mm | - | 557 W/m² | - |
| 1777659192 | 18.33° C | 65% | 1016.1 hPa | 0 mm | - | 681 W/m² | - |
| 1777658889 | 17.78° C | 68% | 1016 hPa | 0 mm | - | 422 W/m² | - |
| 1777658585 | 16.67° C | 69% | 1016 hPa | 0 mm | - | 552 W/m² | - |
| 1777658282 | 17.78° C | 66% | 1016.1 hPa | 0 mm | - | 569 W/m² | - |
| 1777657979 | 17.22° C | 68% | 1016.2 hPa | 0 mm | - | 516 W/m² | - |
| 1777657675 | 17.78° C | 66% | 1016.1 hPa | 0 mm | - | 619 W/m² | - |
| 1777657373 | 17.78° C | 67% | 1016.3 hPa | 0 mm | - | 547 W/m² | - |
| 1777657071 | 17.22° C | 68% | 1016.2 hPa | 0 mm | - | 615 W/m² | - |
| 1777656768 | 17.78° C | 70% | 1016.2 hPa | 0 mm | - | 627 W/m² | - |
| 1777656463 | 17.22° C | 69% | 1016.2 hPa | 0 mm | - | 587 W/m² | - |
* Rain latest hour (hover to see other rain measurements)
** Current wind speed in m/s (hover to see current wind gust speed)